Terminal Aerodrome Forecast
Issued by NWS Medford, OR

Home | Current Version | Previous Version | Text Only | Print | Product List | Glossary On
Versions: 1 2 3 4 5 6 7 8 9 10 11 12 13 14
000
FTUS46 KMFR 020500
TAFMFR
TAF
KMFR 020538Z 0206/0306 35004KT 6SM FU SKC
     FM022300 32013KT 6SM FU SKC
     FM030400 35004KT 6SM FU SKC=

USA.gov is the U.S. government's official web portal to all federal, state and local government web resources and services.